sensor_id;sensor_type;location;lat;lon;timestamp;P1;durP1;ratioP1;P2;durP2;ratioP2
3647;SDS011;1840;48.892;15.312;2024-01-15T00:02:00;12.73;;;5.87;;
3647;SDS011;1840;48.892;15.312;2024-01-15T00:04:29;12.07;;;5.80;;
3647;SDS011;1840;48.892;15.312;2024-01-15T00:06:57;13.00;;;6.60;;
3647;SDS011;1840;48.892;15.312;2024-01-15T00:09:26;8.70;;;5.00;;
3647;SDS011;1840;48.892;15.312;2024-01-15T00:11:55;11.70;;;5.80;;
3647;SDS011;1840;48.892;15.312;2024-01-15T00:14:22;10.60;;;5.50;;
3647;SDS011;1840;48.892;15.312;2024-01-15T00:16:51;13.20;;;6.63;;
3647;SDS011;1840;48.892;15.312;2024-01-15T00:19:22;11.20;;;5.90;;
3647;SDS011;1840;48.892;15.312;2024-01-15T00:21:51;11.90;;;6.20;;
3647;SDS011;1840;48.892;15.312;2024-01-15T00:24:20;11.23;;;5.87;;
3647;SDS011;1840;48.892;15.312;2024-01-15T00:26:48;10.70;;;5.53;;
3647;SDS011;1840;48.892;15.312;2024-01-15T00:29:17;9.23;;;5.10;;
3647;SDS011;1840;48.892;15.312;2024-01-15T00:31:45;10.93;;;6.17;;
3647;SDS011;1840;48.892;15.312;2024-01-15T00:34:14;9.97;;;5.27;;
3647;SDS011;1840;48.892;15.312;2024-01-15T00:36:44;7.90;;;5.00;;
3647;SDS011;1840;48.892;15.312;2024-01-15T00:39:12;10.80;;;5.40;;
3647;SDS011;1840;48.892;15.312;2024-01-15T00:41:41;11.50;;;5.07;;
3647;SDS011;1840;48.892;15.312;2024-01-15T00:44:09;8.50;;;4.87;;
3647;SDS011;1840;48.892;15.312;2024-01-15T00:46:42;9.20;;;5.13;;
3647;SDS011;1840;48.892;15.312;2024-01-15T00:49:14;11.30;;;5.93;;
3647;SDS011;1840;48.892;15.312;2024-01-15T00:51:45;9.97;;;5.10;;
3647;SDS011;1840;48.892;15.312;2024-01-15T00:54:13;9.23;;;5.50;;
3647;SDS011;1840;48.892;15.312;2024-01-15T00:56:42;11.17;;;5.40;;
3647;SDS011;1840;48.892;15.312;2024-01-15T00:59:10;10.00;;;5.70;;
3647;SDS011;1840;48.892;15.312;2024-01-15T01:01:42;11.57;;;5.77;;
3647;SDS011;1840;48.892;15.312;2024-01-15T01:04:12;11.13;;;5.10;;
3647;SDS011;1840;48.892;15.312;2024-01-15T01:06:42;9.80;;;4.90;;
3647;SDS011;1840;48.892;15.312;2024-01-15T01:09:14;9.40;;;5.10;;
3647;SDS011;1840;48.892;15.312;2024-01-15T01:11:42;9.37;;;4.83;;
3647;SDS011;1840;48.892;15.312;2024-01-15T01:14:11;9.37;;;4.93;;
3647;SDS011;1840;48.892;15.312;2024-01-15T01:16:39;10.10;;;5.93;;
3647;SDS011;1840;48.892;15.312;2024-01-15T01:19:08;9.50;;;5.80;;
3647;SDS011;1840;48.892;15.312;2024-01-15T01:21:38;9.70;;;5.23;;
3647;SDS011;1840;48.892;15.312;2024-01-15T01:24:06;8.90;;;5.40;;
3647;SDS011;1840;48.892;15.312;2024-01-15T01:26:36;8.03;;;4.60;;
3647;SDS011;1840;48.892;15.312;2024-01-15T01:29:05;10.50;;;5.90;;
3647;SDS011;1840;48.892;15.312;2024-01-15T01:31:34;8.20;;;4.97;;
3647;SDS011;1840;48.892;15.312;2024-01-15T01:34:03;10.83;;;5.73;;
3647;SDS011;1840;48.892;15.312;2024-01-15T01:36:32;11.57;;;5.53;;
3647;SDS011;1840;48.892;15.312;2024-01-15T01:39:03;10.60;;;4.93;;
3647;SDS011;1840;48.892;15.312;2024-01-15T01:41:32;12.27;;;5.53;;
3647;SDS011;1840;48.892;15.312;2024-01-15T01:44:02;10.50;;;5.73;;
3647;SDS011;1840;48.892;15.312;2024-01-15T01:46:32;9.00;;;5.57;;
3647;SDS011;1840;48.892;15.312;2024-01-15T01:49:06;10.57;;;5.50;;
3647;SDS011;1840;48.892;15.312;2024-01-15T01:51:37;11.50;;;6.00;;
3647;SDS011;1840;48.892;15.312;2024-01-15T01:54:06;11.63;;;5.67;;
3647;SDS011;1840;48.892;15.312;2024-01-15T01:56:39;13.40;;;7.00;;
3647;SDS011;1840;48.892;15.312;2024-01-15T01:59:10;14.23;;;6.40;;
3647;SDS011;1840;48.892;15.312;2024-01-15T02:01:39;12.60;;;6.23;;
3647;SDS011;1840;48.892;15.312;2024-01-15T02:04:09;10.83;;;6.40;;
3647;SDS011;1840;48.892;15.312;2024-01-15T02:06:39;13.30;;;7.23;;
3647;SDS011;1840;48.892;15.312;2024-01-15T02:09:08;11.17;;;6.30;;
3647;SDS011;1840;48.892;15.312;2024-01-15T02:11:37;11.20;;;5.67;;
3647;SDS011;1840;48.892;15.312;2024-01-15T02:14:06;12.60;;;6.73;;
3647;SDS011;1840;48.892;15.312;2024-01-15T02:16:36;16.10;;;6.53;;
3647;SDS011;1840;48.892;15.312;2024-01-15T02:19:10;19.53;;;7.23;;
3647;SDS011;1840;48.892;15.312;2024-01-15T02:21:43;11.63;;;5.83;;
3647;SDS011;1840;48.892;15.312;2024-01-15T02:24:13;13.40;;;7.03;;
3647;SDS011;1840;48.892;15.312;2024-01-15T02:26:41;15.03;;;7.70;;
3647;SDS011;1840;48.892;15.312;2024-01-15T02:29:10;12.47;;;6.40;;
3647;SDS011;1840;48.892;15.312;2024-01-15T02:31:40;13.90;;;7.17;;
3647;SDS011;1840;48.892;15.312;2024-01-15T02:34:08;15.13;;;7.30;;
3647;SDS011;1840;48.892;15.312;2024-01-15T02:36:37;17.73;;;6.00;;
3647;SDS011;1840;48.892;15.312;2024-01-15T02:39:05;14.30;;;7.50;;
3647;SDS011;1840;48.892;15.312;2024-01-15T02:41:35;14.90;;;6.80;;
3647;SDS011;1840;48.892;15.312;2024-01-15T02:44:03;17.10;;;7.70;;
3647;SDS011;1840;48.892;15.312;2024-01-15T02:46:32;13.30;;;7.30;;
3647;SDS011;1840;48.892;15.312;2024-01-15T02:49:01;16.03;;;7.33;;
3647;SDS011;1840;48.892;15.312;2024-01-15T02:51:29;12.03;;;7.17;;
3647;SDS011;1840;48.892;15.312;2024-01-15T02:53:58;13.80;;;7.03;;
3647;SDS011;1840;48.892;15.312;2024-01-15T02:56:26;14.33;;;7.70;;
3647;SDS011;1840;48.892;15.312;2024-01-15T02:58:56;15.07;;;7.90;;
3647;SDS011;1840;48.892;15.312;2024-01-15T03:01:24;18.77;;;8.63;;
3647;SDS011;1840;48.892;15.312;2024-01-15T03:03:53;21.37;;;9.90;;
3647;SDS011;1840;48.892;15.312;2024-01-15T03:06:22;22.53;;;11.07;;
3647;SDS011;1840;48.892;15.312;2024-01-15T03:08:50;21.40;;;10.40;;
3647;SDS011;1840;48.892;15.312;2024-01-15T03:11:19;22.77;;;11.20;;
3647;SDS011;1840;48.892;15.312;2024-01-15T03:13:47;23.20;;;11.50;;
3647;SDS011;1840;48.892;15.312;2024-01-15T03:16:17;23.43;;;11.50;;
3647;SDS011;1840;48.892;15.312;2024-01-15T03:18:47;22.93;;;11.33;;
3647;SDS011;1840;48.892;15.312;2024-01-15T03:21:15;23.40;;;12.43;;
3647;SDS011;1840;48.892;15.312;2024-01-15T03:23:45;23.00;;;11.10;;
3647;SDS011;1840;48.892;15.312;2024-01-15T03:26:14;24.27;;;11.60;;
3647;SDS011;1840;48.892;15.312;2024-01-15T03:28:43;25.07;;;11.43;;
3647;SDS011;1840;48.892;15.312;2024-01-15T03:31:11;26.37;;;13.07;;
3647;SDS011;1840;48.892;15.312;2024-01-15T03:33:42;25.70;;;12.50;;
3647;SDS011;1840;48.892;15.312;2024-01-15T03:36:10;26.90;;;14.20;;
3647;SDS011;1840;48.892;15.312;2024-01-15T03:38:40;27.10;;;12.70;;
3647;SDS011;1840;48.892;15.312;2024-01-15T03:41:09;27.97;;;13.67;;
3647;SDS011;1840;48.892;15.312;2024-01-15T03:43:37;29.00;;;14.40;;
3647;SDS011;1840;48.892;15.312;2024-01-15T03:46:06;33.10;;;14.33;;
3647;SDS011;1840;48.892;15.312;2024-01-15T03:48:35;24.17;;;12.70;;
3647;SDS011;1840;48.892;15.312;2024-01-15T03:51:05;30.20;;;13.43;;
3647;SDS011;1840;48.892;15.312;2024-01-15T03:53:34;27.60;;;13.20;;
3647;SDS011;1840;48.892;15.312;2024-01-15T03:56:02;30.43;;;14.40;;
3647;SDS011;1840;48.892;15.312;2024-01-15T03:58:33;28.17;;;14.73;;
3647;SDS011;1840;48.892;15.312;2024-01-15T04:01:01;29.07;;;14.60;;
3647;SDS011;1840;48.892;15.312;2024-01-15T04:03:30;28.03;;;12.20;;
3647;SDS011;1840;48.892;15.312;2024-01-15T04:05:59;31.27;;;14.40;;
3647;SDS011;1840;48.892;15.312;2024-01-15T04:08:29;26.17;;;13.00;;
3647;SDS011;1840;48.892;15.312;2024-01-15T04:10:57;27.70;;;13.70;;
3647;SDS011;1840;48.892;15.312;2024-01-15T04:13:25;28.83;;;13.73;;
3647;SDS011;1840;48.892;15.312;2024-01-15T04:15:54;29.63;;;12.27;;
3647;SDS011;1840;48.892;15.312;2024-01-15T04:18:22;75.63;;;27.87;;
3647;SDS011;1840;48.892;15.312;2024-01-15T04:20:51;30.20;;;13.77;;
3647;SDS011;1840;48.892;15.312;2024-01-15T04:23:20;49.87;;;22.67;;
3647;SDS011;1840;48.892;15.312;2024-01-15T04:25:50;34.30;;;15.50;;
3647;SDS011;1840;48.892;15.312;2024-01-15T04:28:18;32.20;;;15.00;;
3647;SDS011;1840;48.892;15.312;2024-01-15T04:30:47;30.30;;;14.23;;
3647;SDS011;1840;48.892;15.312;2024-01-15T04:33:15;31.17;;;14.73;;
3647;SDS011;1840;48.892;15.312;2024-01-15T04:35:44;31.93;;;14.47;;
3647;SDS011;1840;48.892;15.312;2024-01-15T04:38:12;30.73;;;16.47;;
3647;SDS011;1840;48.892;15.312;2024-01-15T04:40:41;26.67;;;13.70;;
3647;SDS011;1840;48.892;15.312;2024-01-15T04:43:13;32.73;;;15.77;;
3647;SDS011;1840;48.892;15.312;2024-01-15T04:45:41;29.63;;;14.33;;
3647;SDS011;1840;48.892;15.312;2024-01-15T04:48:10;28.83;;;15.30;;
3647;SDS011;1840;48.892;15.312;2024-01-15T04:50:38;30.63;;;14.80;;
3647;SDS011;1840;48.892;15.312;2024-01-15T04:53:06;26.50;;;13.40;;
3647;SDS011;1840;48.892;15.312;2024-01-15T04:55:38;30.10;;;13.80;;
3647;SDS011;1840;48.892;15.312;2024-01-15T04:58:07;29.10;;;14.63;;
3647;SDS011;1840;48.892;15.312;2024-01-15T05:00:37;28.20;;;14.00;;
3647;SDS011;1840;48.892;15.312;2024-01-15T05:03:05;29.03;;;13.57;;
3647;SDS011;1840;48.892;15.312;2024-01-15T05:05:34;25.07;;;12.43;;
3647;SDS011;1840;48.892;15.312;2024-01-15T05:08:03;29.03;;;14.07;;
3647;SDS011;1840;48.892;15.312;2024-01-15T05:10:32;29.60;;;14.30;;
3647;SDS011;1840;48.892;15.312;2024-01-15T05:13:00;28.47;;;14.47;;
3647;SDS011;1840;48.892;15.312;2024-01-15T05:15:29;26.40;;;13.00;;
3647;SDS011;1840;48.892;15.312;2024-01-15T05:17:59;26.23;;;13.50;;
3647;SDS011;1840;48.892;15.312;2024-01-15T05:20:27;26.83;;;13.50;;
3647;SDS011;1840;48.892;15.312;2024-01-15T05:22:58;26.30;;;14.17;;
3647;SDS011;1840;48.892;15.312;2024-01-15T05:25:26;28.70;;;13.27;;
3647;SDS011;1840;48.892;15.312;2024-01-15T05:27:55;27.80;;;14.90;;
3647;SDS011;1840;48.892;15.312;2024-01-15T05:30:23;38.03;;;13.73;;
3647;SDS011;1840;48.892;15.312;2024-01-15T05:32:52;26.83;;;14.97;;
3647;SDS011;1840;48.892;15.312;2024-01-15T05:35:22;33.10;;;14.80;;
3647;SDS011;1840;48.892;15.312;2024-01-15T05:37:51;30.53;;;16.23;;
3647;SDS011;1840;48.892;15.312;2024-01-15T05:40:19;28.63;;;12.93;;
3647;SDS011;1840;48.892;15.312;2024-01-15T05:42:48;27.20;;;12.47;;
3647;SDS011;1840;48.892;15.312;2024-01-15T05:45:16;22.10;;;11.10;;
3647;SDS011;1840;48.892;15.312;2024-01-15T05:47:45;27.60;;;12.77;;
3647;SDS011;1840;48.892;15.312;2024-01-15T05:50:14;23.60;;;12.00;;
3647;SDS011;1840;48.892;15.312;2024-01-15T05:52:44;22.40;;;11.57;;
3647;SDS011;1840;48.892;15.312;2024-01-15T05:55:13;25.90;;;11.37;;
3647;SDS011;1840;48.892;15.312;2024-01-15T05:57:43;25.83;;;12.30;;
3647;SDS011;1840;48.892;15.312;2024-01-15T06:00:12;24.73;;;13.20;;
3647;SDS011;1840;48.892;15.312;2024-01-15T06:02:41;22.50;;;11.10;;
3647;SDS011;1840;48.892;15.312;2024-01-15T06:05:10;26.33;;;12.30;;
3647;SDS011;1840;48.892;15.312;2024-01-15T06:07:38;23.10;;;11.77;;
3647;SDS011;1840;48.892;15.312;2024-01-15T06:10:08;25.20;;;11.63;;
3647;SDS011;1840;48.892;15.312;2024-01-15T06:12:44;25.03;;;12.90;;
3647;SDS011;1840;48.892;15.312;2024-01-15T06:15:13;22.40;;;12.50;;
3647;SDS011;1840;48.892;15.312;2024-01-15T06:17:41;24.07;;;12.70;;
3647;SDS011;1840;48.892;15.312;2024-01-15T06:20:11;22.40;;;11.40;;
3647;SDS011;1840;48.892;15.312;2024-01-15T06:22:40;22.33;;;13.60;;
3647;SDS011;1840;48.892;15.312;2024-01-15T06:25:10;24.77;;;11.30;;
3647;SDS011;1840;48.892;15.312;2024-01-15T06:27:39;28.40;;;12.87;;
3647;SDS011;1840;48.892;15.312;2024-01-15T06:30:07;26.53;;;12.07;;
3647;SDS011;1840;48.892;15.312;2024-01-15T06:32:37;22.60;;;11.50;;
3647;SDS011;1840;48.892;15.312;2024-01-15T06:35:06;21.57;;;12.13;;
3647;SDS011;1840;48.892;15.312;2024-01-15T06:37:36;22.43;;;11.47;;
3647;SDS011;1840;48.892;15.312;2024-01-15T06:40:05;22.33;;;11.40;;
3647;SDS011;1840;48.892;15.312;2024-01-15T06:42:40;20.00;;;10.10;;
3647;SDS011;1840;48.892;15.312;2024-01-15T06:45:09;31.87;;;13.90;;
3647;SDS011;1840;48.892;15.312;2024-01-15T06:47:39;33.40;;;13.50;;
3647;SDS011;1840;48.892;15.312;2024-01-15T06:50:08;24.50;;;11.60;;
3647;SDS011;1840;48.892;15.312;2024-01-15T06:52:37;21.90;;;10.00;;
3647;SDS011;1840;48.892;15.312;2024-01-15T06:55:05;23.63;;;11.50;;
3647;SDS011;1840;48.892;15.312;2024-01-15T06:57:34;21.53;;;10.90;;
3647;SDS011;1840;48.892;15.312;2024-01-15T07:00:05;18.30;;;10.20;;
3647;SDS011;1840;48.892;15.312;2024-01-15T07:02:35;19.57;;;10.33;;
3647;SDS011;1840;48.892;15.312;2024-01-15T07:05:04;21.60;;;10.10;;
3647;SDS011;1840;48.892;15.312;2024-01-15T07:07:33;19.83;;;9.83;;
3647;SDS011;1840;48.892;15.312;2024-01-15T07:10:01;21.07;;;11.00;;
3647;SDS011;1840;48.892;15.312;2024-01-15T07:12:34;22.23;;;10.10;;
3647;SDS011;1840;48.892;15.312;2024-01-15T07:15:08;21.87;;;9.73;;
3647;SDS011;1840;48.892;15.312;2024-01-15T07:17:37;19.50;;;9.20;;
3647;SDS011;1840;48.892;15.312;2024-01-15T07:20:07;16.60;;;8.97;;
3647;SDS011;1840;48.892;15.312;2024-01-15T07:22:37;17.70;;;9.00;;
3647;SDS011;1840;48.892;15.312;2024-01-15T07:25:06;17.17;;;8.57;;
3647;SDS011;1840;48.892;15.312;2024-01-15T07:27:35;19.60;;;10.07;;
3647;SDS011;1840;48.892;15.312;2024-01-15T07:30:07;17.50;;;8.90;;
3647;SDS011;1840;48.892;15.312;2024-01-15T07:32:36;19.00;;;10.00;;
3647;SDS011;1840;48.892;15.312;2024-01-15T07:35:05;17.70;;;10.07;;
3647;SDS011;1840;48.892;15.312;2024-01-15T07:37:34;20.20;;;10.50;;
3647;SDS011;1840;48.892;15.312;2024-01-15T07:40:03;15.93;;;8.43;;
3647;SDS011;1840;48.892;15.312;2024-01-15T07:42:35;18.60;;;9.47;;
3647;SDS011;1840;48.892;15.312;2024-01-15T07:45:05;19.20;;;9.60;;
3647;SDS011;1840;48.892;15.312;2024-01-15T07:47:35;18.70;;;10.00;;
3647;SDS011;1840;48.892;15.312;2024-01-15T07:50:04;19.17;;;9.57;;
3647;SDS011;1840;48.892;15.312;2024-01-15T07:52:33;23.77;;;9.23;;
3647;SDS011;1840;48.892;15.312;2024-01-15T07:55:02;26.97;;;10.93;;
3647;SDS011;1840;48.892;15.312;2024-01-15T07:57:31;16.47;;;8.50;;
3647;SDS011;1840;48.892;15.312;2024-01-15T08:00:00;18.17;;;8.63;;
3647;SDS011;1840;48.892;15.312;2024-01-15T08:02:31;21.37;;;9.97;;
3647;SDS011;1840;48.892;15.312;2024-01-15T08:05:03;18.90;;;9.30;;
3647;SDS011;1840;48.892;15.312;2024-01-15T08:07:32;19.93;;;8.73;;
3647;SDS011;1840;48.892;15.312;2024-01-15T08:10:00;19.50;;;8.23;;
3647;SDS011;1840;48.892;15.312;2024-01-15T08:12:29;22.60;;;9.17;;
3647;SDS011;1840;48.892;15.312;2024-01-15T08:14:58;16.63;;;8.93;;
3647;SDS011;1840;48.892;15.312;2024-01-15T08:17:26;16.63;;;7.97;;
3647;SDS011;1840;48.892;15.312;2024-01-15T08:19:58;18.60;;;7.60;;
3647;SDS011;1840;48.892;15.312;2024-01-15T08:22:28;18.23;;;9.43;;
3647;SDS011;1840;48.892;15.312;2024-01-15T08:24:57;14.43;;;7.67;;
3647;SDS011;1840;48.892;15.312;2024-01-15T08:27:26;18.37;;;8.70;;
3647;SDS011;1840;48.892;15.312;2024-01-15T08:29:56;14.93;;;7.07;;
3647;SDS011;1840;48.892;15.312;2024-01-15T08:32:25;13.70;;;7.40;;
3647;SDS011;1840;48.892;15.312;2024-01-15T08:34:54;14.70;;;7.40;;
3647;SDS011;1840;48.892;15.312;2024-01-15T08:37:27;14.07;;;7.57;;
3647;SDS011;1840;48.892;15.312;2024-01-15T08:39:56;16.90;;;7.40;;
3647;SDS011;1840;48.892;15.312;2024-01-15T08:42:24;17.00;;;7.47;;
3647;SDS011;1840;48.892;15.312;2024-01-15T08:44:55;14.97;;;7.47;;
3647;SDS011;1840;48.892;15.312;2024-01-15T08:47:24;20.13;;;8.47;;
3647;SDS011;1840;48.892;15.312;2024-01-15T08:49:52;18.40;;;7.90;;
3647;SDS011;1840;48.892;15.312;2024-01-15T08:52:21;20.47;;;8.40;;
3647;SDS011;1840;48.892;15.312;2024-01-15T08:54:51;15.47;;;7.93;;
3647;SDS011;1840;48.892;15.312;2024-01-15T08:57:20;16.93;;;8.20;;
3647;SDS011;1840;48.892;15.312;2024-01-15T08:59:49;18.70;;;7.87;;
3647;SDS011;1840;48.892;15.312;2024-01-15T09:02:21;17.37;;;7.77;;
3647;SDS011;1840;48.892;15.312;2024-01-15T09:04:49;12.97;;;6.93;;
3647;SDS011;1840;48.892;15.312;2024-01-15T09:07:18;12.40;;;6.97;;
3647;SDS011;1840;48.892;15.312;2024-01-15T09:09:46;15.60;;;7.47;;
3647;SDS011;1840;48.892;15.312;2024-01-15T09:12:16;15.00;;;6.93;;
3647;SDS011;1840;48.892;15.312;2024-01-15T09:14:47;13.77;;;7.47;;
3647;SDS011;1840;48.892;15.312;2024-01-15T09:17:17;15.47;;;7.33;;
3647;SDS011;1840;48.892;15.312;2024-01-15T09:19:45;15.40;;;7.27;;
3647;SDS011;1840;48.892;15.312;2024-01-15T09:22:14;15.87;;;7.10;;
3647;SDS011;1840;48.892;15.312;2024-01-15T09:24:45;15.70;;;7.13;;
3647;SDS011;1840;48.892;15.312;2024-01-15T09:27:14;17.57;;;8.13;;
3647;SDS011;1840;48.892;15.312;2024-01-15T09:29:44;14.47;;;7.40;;
3647;SDS011;1840;48.892;15.312;2024-01-15T09:32:12;14.40;;;7.57;;
3647;SDS011;1840;48.892;15.312;2024-01-15T09:34:42;16.67;;;7.67;;
3647;SDS011;1840;48.892;15.312;2024-01-15T09:37:10;15.70;;;8.47;;
3647;SDS011;1840;48.892;15.312;2024-01-15T09:39:57;14.40;;;7.77;;
3647;SDS011;1840;48.892;15.312;2024-01-15T09:42:26;18.00;;;7.30;;
3647;SDS011;1840;48.892;15.312;2024-01-15T09:44:57;21.90;;;6.50;;
3647;SDS011;1840;48.892;15.312;2024-01-15T09:47:26;13.60;;;7.13;;
3647;SDS011;1840;48.892;15.312;2024-01-15T09:49:55;14.60;;;7.30;;
3647;SDS011;1840;48.892;15.312;2024-01-15T09:52:24;17.40;;;7.50;;
3647;SDS011;1840;48.892;15.312;2024-01-15T09:54:54;50.53;;;17.00;;
3647;SDS011;1840;48.892;15.312;2024-01-15T09:57:22;16.00;;;8.10;;
3647;SDS011;1840;48.892;15.312;2024-01-15T09:59:51;14.70;;;7.60;;
3647;SDS011;1840;48.892;15.312;2024-01-15T10:02:22;12.47;;;6.97;;
3647;SDS011;1840;48.892;15.312;2024-01-15T10:04:51;14.57;;;7.47;;
3647;SDS011;1840;48.892;15.312;2024-01-15T10:07:21;28.03;;;6.43;;
3647;SDS011;1840;48.892;15.312;2024-01-15T10:09:51;18.87;;;9.03;;
3647;SDS011;1840;48.892;15.312;2024-01-15T10:12:19;11.00;;;6.10;;
3647;SDS011;1840;48.892;15.312;2024-01-15T10:14:50;10.37;;;4.97;;
3647;SDS011;1840;48.892;15.312;2024-01-15T10:17:18;14.83;;;6.30;;
3647;SDS011;1840;48.892;15.312;2024-01-15T10:19:50;11.10;;;6.50;;
3647;SDS011;1840;48.892;15.312;2024-01-15T10:22:18;74.60;;;10.17;;
3647;SDS011;1840;48.892;15.312;2024-01-15T10:24:46;14.00;;;5.27;;
3647;SDS011;1840;48.892;15.312;2024-01-15T10:27:15;12.00;;;5.70;;
3647;SDS011;1840;48.892;15.312;2024-01-15T10:29:44;12.90;;;6.57;;
3647;SDS011;1840;48.892;15.312;2024-01-15T10:32:12;11.00;;;5.77;;
3647;SDS011;1840;48.892;15.312;2024-01-15T10:34:41;10.93;;;5.83;;
3647;SDS011;1840;48.892;15.312;2024-01-15T10:37:11;16.90;;;6.27;;
3647;SDS011;1840;48.892;15.312;2024-01-15T10:39:40;9.43;;;5.70;;
3647;SDS011;1840;48.892;15.312;2024-01-15T10:42:09;15.13;;;5.30;;
3647;SDS011;1840;48.892;15.312;2024-01-15T10:44:38;11.43;;;6.20;;
3647;SDS011;1840;48.892;15.312;2024-01-15T10:47:06;13.10;;;5.67;;
3647;SDS011;1840;48.892;15.312;2024-01-15T10:49:35;12.70;;;6.20;;
3647;SDS011;1840;48.892;15.312;2024-01-15T10:52:07;12.80;;;6.10;;
3647;SDS011;1840;48.892;15.312;2024-01-15T10:54:37;12.20;;;5.90;;
3647;SDS011;1840;48.892;15.312;2024-01-15T10:57:10;11.27;;;5.53;;
3647;SDS011;1840;48.892;15.312;2024-01-15T10:59:40;9.77;;;4.90;;
3647;SDS011;1840;48.892;15.312;2024-01-15T11:02:09;12.27;;;6.30;;
3647;SDS011;1840;48.892;15.312;2024-01-15T11:04:38;13.60;;;6.43;;
3647;SDS011;1840;48.892;15.312;2024-01-15T11:07:06;9.50;;;5.27;;
3647;SDS011;1840;48.892;15.312;2024-01-15T11:09:38;10.10;;;5.90;;
3647;SDS011;1840;48.892;15.312;2024-01-15T11:12:09;10.70;;;5.13;;
3647;SDS011;1840;48.892;15.312;2024-01-15T11:14:39;9.03;;;5.07;;
3647;SDS011;1840;48.892;15.312;2024-01-15T11:17:10;11.27;;;5.27;;
3647;SDS011;1840;48.892;15.312;2024-01-15T11:19:42;8.30;;;5.13;;
3647;SDS011;1840;48.892;15.312;2024-01-15T11:25:26;10.03;;;5.30;;
3647;SDS011;1840;48.892;15.312;2024-01-15T11:28:04;16.67;;;5.67;;
3647;SDS011;1840;48.892;15.312;2024-01-15T11:30:33;9.73;;;5.33;;
3647;SDS011;1840;48.892;15.312;2024-01-15T11:33:03;11.10;;;5.60;;
3647;SDS011;1840;48.892;15.312;2024-01-15T11:35:49;11.53;;;6.10;;
3647;SDS011;1840;48.892;15.312;2024-01-15T11:38:27;10.93;;;4.57;;
3647;SDS011;1840;48.892;15.312;2024-01-15T11:40:58;10.73;;;6.53;;
3647;SDS011;1840;48.892;15.312;2024-01-15T11:43:28;12.77;;;6.50;;
3647;SDS011;1840;48.892;15.312;2024-01-15T11:45:59;11.63;;;6.07;;
3647;SDS011;1840;48.892;15.312;2024-01-15T11:48:37;12.17;;;6.10;;
3647;SDS011;1840;48.892;15.312;2024-01-15T11:51:12;9.90;;;4.97;;
3647;SDS011;1840;48.892;15.312;2024-01-15T11:53:43;14.80;;;5.33;;
3647;SDS011;1840;48.892;15.312;2024-01-15T11:56:16;24.07;;;7.67;;
3647;SDS011;1840;48.892;15.312;2024-01-15T11:58:46;11.63;;;5.73;;
3647;SDS011;1840;48.892;15.312;2024-01-15T12:01:16;8.80;;;4.73;;
3647;SDS011;1840;48.892;15.312;2024-01-15T12:03:47;9.53;;;5.83;;
3647;SDS011;1840;48.892;15.312;2024-01-15T12:06:15;11.57;;;5.83;;
3647;SDS011;1840;48.892;15.312;2024-01-15T12:08:44;9.83;;;5.67;;
3647;SDS011;1840;48.892;15.312;2024-01-15T12:11:13;13.20;;;6.40;;
3647;SDS011;1840;48.892;15.312;2024-01-15T12:13:43;8.17;;;4.30;;
3647;SDS011;1840;48.892;15.312;2024-01-15T12:16:12;10.93;;;5.30;;
3647;SDS011;1840;48.892;15.312;2024-01-15T12:18:40;12.30;;;5.27;;
3647;SDS011;1840;48.892;15.312;2024-01-15T12:21:09;9.53;;;5.90;;
3647;SDS011;1840;48.892;15.312;2024-01-15T12:23:38;9.70;;;4.80;;
3647;SDS011;1840;48.892;15.312;2024-01-15T12:26:07;10.20;;;5.53;;
3647;SDS011;1840;48.892;15.312;2024-01-15T12:28:37;9.13;;;5.80;;
3647;SDS011;1840;48.892;15.312;2024-01-15T12:31:06;7.90;;;4.93;;
3647;SDS011;1840;48.892;15.312;2024-01-15T12:33:35;10.80;;;5.30;;
3647;SDS011;1840;48.892;15.312;2024-01-15T12:36:04;10.93;;;5.17;;
3647;SDS011;1840;48.892;15.312;2024-01-15T12:38:32;9.07;;;4.10;;
3647;SDS011;1840;48.892;15.312;2024-01-15T12:41:01;13.83;;;5.27;;
3647;SDS011;1840;48.892;15.312;2024-01-15T12:43:28;13.83;;;4.70;;
3647;SDS011;1840;48.892;15.312;2024-01-15T12:45:58;8.70;;;5.33;;
3647;SDS011;1840;48.892;15.312;2024-01-15T12:48:27;8.57;;;4.80;;
3647;SDS011;1840;48.892;15.312;2024-01-15T12:50:56;10.83;;;5.80;;
3647;SDS011;1840;48.892;15.312;2024-01-15T12:53:24;11.70;;;5.33;;
3647;SDS011;1840;48.892;15.312;2024-01-15T12:55:53;9.23;;;5.13;;
3647;SDS011;1840;48.892;15.312;2024-01-15T12:58:22;7.73;;;4.70;;
3647;SDS011;1840;48.892;15.312;2024-01-15T13:00:50;9.77;;;4.60;;
3647;SDS011;1840;48.892;15.312;2024-01-15T13:03:20;9.97;;;4.57;;
3647;SDS011;1840;48.892;15.312;2024-01-15T13:05:50;10.83;;;4.90;;
3647;SDS011;1840;48.892;15.312;2024-01-15T13:08:19;13.27;;;4.87;;
3647;SDS011;1840;48.892;15.312;2024-01-15T13:10:50;7.93;;;4.93;;
3647;SDS011;1840;48.892;15.312;2024-01-15T13:13:25;8.47;;;5.13;;
3647;SDS011;1840;48.892;15.312;2024-01-15T13:15:53;6.47;;;4.13;;
3647;SDS011;1840;48.892;15.312;2024-01-15T13:18:24;9.83;;;4.80;;
3647;SDS011;1840;48.892;15.312;2024-01-15T13:20:52;8.80;;;4.90;;
3647;SDS011;1840;48.892;15.312;2024-01-15T13:23:21;9.20;;;5.23;;
3647;SDS011;1840;48.892;15.312;2024-01-15T13:25:50;7.37;;;4.27;;
3647;SDS011;1840;48.892;15.312;2024-01-15T13:28:18;8.50;;;4.23;;
3647;SDS011;1840;48.892;15.312;2024-01-15T13:30:49;8.53;;;3.83;;
3647;SDS011;1840;48.892;15.312;2024-01-15T13:33:17;8.47;;;4.50;;
3647;SDS011;1840;48.892;15.312;2024-01-15T13:35:48;8.00;;;4.60;;
3647;SDS011;1840;48.892;15.312;2024-01-15T13:38:17;6.63;;;3.90;;
3647;SDS011;1840;48.892;15.312;2024-01-15T13:40:46;12.70;;;4.73;;
3647;SDS011;1840;48.892;15.312;2024-01-15T13:43:14;8.17;;;3.90;;
3647;SDS011;1840;48.892;15.312;2024-01-15T13:45:45;7.20;;;4.20;;
3647;SDS011;1840;48.892;15.312;2024-01-15T13:48:14;8.60;;;4.20;;
3647;SDS011;1840;48.892;15.312;2024-01-15T13:50:42;10.00;;;4.20;;
3647;SDS011;1840;48.892;15.312;2024-01-15T13:53:12;8.27;;;3.83;;
3647;SDS011;1840;48.892;15.312;2024-01-15T13:55:41;5.77;;;3.30;;
3647;SDS011;1840;48.892;15.312;2024-01-15T13:58:10;10.00;;;3.97;;
3647;SDS011;1840;48.892;15.312;2024-01-15T14:00:39;6.83;;;3.97;;
3647;SDS011;1840;48.892;15.312;2024-01-15T14:03:08;7.80;;;4.10;;
3647;SDS011;1840;48.892;15.312;2024-01-15T14:05:36;7.60;;;3.80;;
3647;SDS011;1840;48.892;15.312;2024-01-15T14:08:05;8.50;;;3.23;;
3647;SDS011;1840;48.892;15.312;2024-01-15T14:10:36;8.63;;;4.40;;
3647;SDS011;1840;48.892;15.312;2024-01-15T14:13:05;10.10;;;4.17;;
3647;SDS011;1840;48.892;15.312;2024-01-15T14:15:33;8.20;;;4.70;;
3647;SDS011;1840;48.892;15.312;2024-01-15T14:18:03;6.80;;;4.60;;
3647;SDS011;1840;48.892;15.312;2024-01-15T14:20:33;5.80;;;3.77;;
3647;SDS011;1840;48.892;15.312;2024-01-15T14:23:04;6.50;;;3.90;;
3647;SDS011;1840;48.892;15.312;2024-01-15T14:25:32;6.80;;;3.80;;
3647;SDS011;1840;48.892;15.312;2024-01-15T14:28:03;7.40;;;3.30;;
3647;SDS011;1840;48.892;15.312;2024-01-15T14:30:31;12.27;;;4.70;;
3647;SDS011;1840;48.892;15.312;2024-01-15T14:33:00;5.80;;;3.80;;
3647;SDS011;1840;48.892;15.312;2024-01-15T14:35:29;6.47;;;3.90;;
3647;SDS011;1840;48.892;15.312;2024-01-15T14:37:58;17.33;;;5.60;;
3647;SDS011;1840;48.892;15.312;2024-01-15T14:40:27;5.63;;;4.03;;
3647;SDS011;1840;48.892;15.312;2024-01-15T14:42:56;5.73;;;3.73;;
3647;SDS011;1840;48.892;15.312;2024-01-15T14:45:27;5.97;;;3.60;;
3647;SDS011;1840;48.892;15.312;2024-01-15T14:47:56;7.47;;;4.00;;
3647;SDS011;1840;48.892;15.312;2024-01-15T14:50:26;7.27;;;3.87;;
3647;SDS011;1840;48.892;15.312;2024-01-15T14:52:54;6.37;;;4.17;;
3647;SDS011;1840;48.892;15.312;2024-01-15T14:55:23;6.83;;;3.90;;
3647;SDS011;1840;48.892;15.312;2024-01-15T14:57:52;8.47;;;4.83;;
3647;SDS011;1840;48.892;15.312;2024-01-15T15:00:20;6.57;;;4.07;;
3647;SDS011;1840;48.892;15.312;2024-01-15T15:02:51;7.50;;;4.90;;